Time;durP1;ratioP1;P1;durP2;ratioP2;P2;SDS_P1;SDS_P2;PMS_P1;PMS_P2;Temp;Humidity;BMP_temperature;BMP_pressure;BME280_temperature;BME280_humidity;BME280_pressure;Samples;Min_cycle;Max_cycle;Signal;HPM_P1;HPM_P2
2023/12/14 00:00:30;;;;;;;10.60;8.20;;;;;;;6.74;100.00;94704.88;7400143;19;20393;-87
2023/12/14 00:03:02;;;;;;;10.13;6.90;;;;;;;6.40;100.00;94663.31;7398963;19;20399;-87
2023/12/14 00:05:42;;;;;;;10.67;8.37;;;;;;;6.18;100.00;94625.97;7401736;19;20376;-87
2023/12/14 00:08:14;;;;;;;7.80;7.00;;;;;;;6.23;100.00;94636.22;7402828;19;20377;-87
2023/12/14 00:10:44;;;;;;;9.77;7.77;;;;;;;6.26;100.00;94671.31;7399770;19;20393;-87
2023/12/14 00:13:13;;;;;;;7.77;6.60;;;;;;;5.93;100.00;94627.56;7398172;19;20881;-87
2023/12/14 00:15:42;;;;;;;8.20;6.90;;;;;;;5.96;100.00;94634.00;7399636;19;20416;-87
2023/12/14 00:18:10;;;;;;;8.97;7.37;;;;;;;6.09;100.00;94648.66;7399743;19;20384;-87
2023/12/14 00:20:38;;;;;;;7.47;6.10;;;;;;;6.01;100.00;94631.25;7399376;19;20407;-89
2023/12/14 00:23:07;;;;;;;9.60;7.20;;;;;;;6.65;100.00;94719.03;7399587;19;20383;-87
2023/12/14 00:25:37;;;;;;;10.13;6.73;;;;;;;6.07;100.00;94616.97;7398941;19;20400;-88
2023/12/14 00:28:06;;;;;;;7.27;6.33;;;;;;;6.35;100.00;94643.38;7399927;19;20440;-87
2023/12/14 00:30:35;;;;;;;9.90;6.90;;;;;;;6.64;100.00;94687.00;7399753;19;20683;-87
2023/12/14 00:33:04;;;;;;;11.17;7.27;;;;;;;6.43;100.00;94665.28;7398082;19;20408;-87
2023/12/14 00:35:32;;;;;;;12.37;8.00;;;;;;;6.03;100.00;94620.50;7397625;19;20788;-87
2023/12/14 00:38:00;;;;;;;9.30;7.07;;;;;;;6.35;100.00;94692.13;7399699;19;20381;-88
2023/12/14 00:40:29;;;;;;;11.40;7.00;;;;;;;6.04;100.00;94638.44;7401174;19;20945;-87
2023/12/14 00:42:57;;;;;;;9.37;6.63;;;;;;;6.42;100.00;94690.56;7396808;19;20896;-87
2023/12/14 00:45:25;;;;;;;8.57;7.17;;;;;;;6.06;100.00;94644.09;7398788;19;20344;-87
2023/12/14 00:47:57;;;;;;;6.70;5.83;;;;;;;6.26;100.00;94681.75;7400868;19;21020;-87
2023/12/14 00:50:25;;;;;;;7.00;5.97;;;;;;;6.37;100.00;94703.00;7398845;19;20737;-87
2023/12/14 00:52:54;;;;;;;9.87;6.23;;;;;;;5.87;100.00;94633.25;7396405;19;20428;-86
2023/12/14 00:55:23;;;;;;;6.10;5.37;;;;;;;5.77;100.00;94636.19;7400133;19;20692;-87
2023/12/14 00:57:53;;;;;;;10.03;6.00;;;;;;;6.34;100.00;94719.25;7398150;19;20384;-87
2023/12/14 01:00:23;;;;;;;7.57;6.00;;;;;;;6.25;100.00;94706.25;7398271;19;20369;-87
2023/12/14 01:02:53;;;;;;;6.73;4.50;;;;;;;6.22;100.00;94692.00;7398956;19;20688;-87
2023/12/14 01:05:24;;;;;;;6.50;5.90;;;;;;;6.08;100.00;94686.19;7399200;19;20717;-87
2023/12/14 01:08:02;;;;;;;6.80;5.57;;;;;;;6.33;100.00;94749.75;7399277;19;20331;-87
2023/12/14 01:10:50;;;;;;;6.40;5.27;;;;;;;6.34;100.00;94750.50;7400356;19;20688;-87
2023/12/14 01:13:42;;;;;;;6.10;5.50;;;;;;;6.30;100.00;94732.13;7399694;19;20906;-87
2023/12/14 01:16:18;;;;;;;8.03;5.63;;;;;;;6.32;100.00;94724.78;7400633;19;20381;-87
2023/12/14 01:18:52;;;;;;;8.77;5.33;;;;;;;6.35;100.00;94741.63;7398517;19;20438;-86
2023/12/14 01:21:30;;;;;;;6.77;5.57;;;;;;;6.50;100.00;94761.97;7400050;19;20699;-86
2023/12/14 01:24:02;;;;;;;6.20;5.03;;;;;;;6.10;100.00;94711.94;7397908;19;20397;-87
2023/12/14 01:26:30;;;;;;;7.50;4.90;;;;;;;6.50;100.00;94781.00;7399505;19;20457;-88
2023/12/14 01:28:59;;;;;;;6.40;5.70;;;;;;;6.51;100.00;94779.16;7397763;19;20348;-87
2023/12/14 01:31:27;;;;;;;14.23;9.57;;;;;;;6.17;100.00;94691.41;7397206;19;20875;-87
2023/12/14 01:33:58;;;;;;;9.30;7.17;;;;;;;6.67;100.00;94763.78;7395279;19;20377;-87
2023/12/14 01:36:27;;;;;;;9.47;6.97;;;;;;;6.63;100.00;94763.63;7395700;19;20353;-87
2023/12/14 01:38:55;;;;;;;6.30;5.57;;;;;;;6.55;100.00;94731.31;7397750;19;20396;-87
2023/12/14 01:41:24;;;;;;;6.10;5.50;;;;;;;6.52;100.00;94741.59;7396234;19;20480;-87
2023/12/14 01:43:52;;;;;;;5.87;5.00;;;;;;;6.57;100.00;94767.50;7396866;19;20359;-88
2023/12/14 01:46:21;;;;;;;8.47;7.27;;;;;;;6.23;100.00;94719.56;7396726;19;20357;-88
2023/12/14 01:48:50;;;;;;;6.73;6.13;;;;;;;6.38;100.00;94730.59;7396503;19;20411;-88
2023/12/14 01:51:18;;;;;;;13.93;7.60;;;;;;;6.28;100.00;94737.66;7395992;19;20424;-87
2023/12/14 01:53:46;;;;;;;9.30;6.97;;;;;;;6.46;100.00;94779.31;7397288;19;20384;-88
2023/12/14 01:56:23;;;;;;;9.03;7.17;;;;;;;6.31;100.00;94758.94;7396387;19;20400;-88
2023/12/14 01:58:53;;;;;;;7.90;7.10;;;;;;;6.36;100.00;94746.50;7396623;19;20395;-88
2023/12/14 02:01:37;;;;;;;10.73;6.30;;;;;;;6.94;100.00;94818.16;7395576;19;20405;-87
2023/12/14 02:04:09;;;;;;;11.83;6.80;;;;;;;6.97;100.00;94793.31;7398583;19;20376;-87
2023/12/14 02:06:50;;;;;;;7.47;6.43;;;;;;;6.92;100.00;94803.91;7396506;19;20374;-89
2023/12/14 02:09:32;;;;;;;8.80;6.60;;;;;;;7.15;100.00;94844.31;7397814;19;20329;-88
2023/12/14 02:12:24;;;;;;;7.67;6.90;;;;;;;6.71;100.00;94770.69;7396637;19;20741;-88
2023/12/14 02:14:56;;;;;;;9.60;7.47;;;;;;;6.80;100.00;94813.13;7398038;19;20788;-88
2023/12/14 02:17:24;;;;;;;17.20;7.33;;;;;;;6.56;100.00;94776.38;7396346;19;20386;-87
2023/12/14 02:19:53;;;;;;;11.43;6.17;;;;;;;7.01;100.00;94831.47;7398297;19;20364;-88
2023/12/14 02:22:22;;;;;;;10.97;7.43;;;;;;;7.04;100.00;94817.06;7395071;19;20421;-88
2023/12/14 02:24:51;;;;;;;10.73;6.43;;;;;;;7.55;100.00;94883.19;7396542;19;20386;-88
2023/12/14 02:27:20;;;;;;;10.73;7.10;;;;;;;6.76;100.00;94793.97;7395613;19;20913;-88
2023/12/14 02:29:50;;;;;;;11.00;8.83;;;;;;;6.68;100.00;94799.22;7395642;19;20854;-88
2023/12/14 02:32:20;;;;;;;13.40;7.33;;;;;;;6.88;100.00;94840.25;7394243;19;20424;-88
2023/12/14 02:34:53;;;;;;;7.80;6.70;;;;;;;7.04;100.00;94840.53;7394338;19;20421;-88
2023/12/14 02:37:23;;;;;;;9.13;6.17;;;;;;;6.69;100.00;94780.66;7396008;19;20376;-88
2023/12/14 02:39:55;;;;;;;9.57;6.93;;;;;;;7.17;100.00;94839.56;7395910;19;20384;-88
2023/12/14 02:42:24;;;;;;;7.63;6.60;;;;;;;7.06;100.00;94809.69;7394241;19;20395;-88
2023/12/14 02:44:55;;;;;;;7.27;6.40;;;;;;;7.12;100.00;94827.47;7395371;19;20885;-88
2023/12/14 02:47:25;;;;;;;7.27;6.57;;;;;;;7.16;100.00;94835.41;7395182;19;20386;-88
2023/12/14 02:49:54;;;;;;;7.27;6.50;;;;;;;7.10;100.00;94834.84;7401695;19;20392;-88
2023/12/14 02:52:23;;;;;;;6.13;5.53;;;;;;;7.09;100.00;94845.59;7400819;19;20437;-88
2023/12/14 02:54:52;;;;;;;6.40;5.90;;;;;;;7.20;100.00;94862.44;7402673;19;20365;-88
2023/12/14 02:57:20;;;;;;;6.33;5.73;;;;;;;6.76;100.00;94808.84;7404234;19;20853;-88
2023/12/14 02:59:49;;;;;;;5.07;4.57;;;;;;;7.09;100.00;94851.56;7402439;19;20384;-88
2023/12/14 03:02:18;;;;;;;6.10;5.57;;;;;;;6.92;100.00;94843.78;7400910;19;20421;-88
2023/12/14 03:04:57;;;;;;;6.97;5.60;;;;;;;6.85;100.00;94833.06;7402767;19;20865;-88
2023/12/14 03:07:26;;;;;;;6.17;5.60;;;;;;;7.58;100.00;94937.41;7403935;19;20364;-88
2023/12/14 03:09:57;;;;;;;11.70;6.90;;;;;;;7.25;100.00;94896.19;7402886;19;20394;-88
2023/12/14 03:12:27;;;;;;;11.03;6.50;;;;;;;7.14;100.00;94882.69;7403075;19;20741;-88
2023/12/14 03:15:03;;;;;;;8.43;4.60;;;;;;;6.86;100.00;94830.13;7403357;19;20662;-88
2023/12/14 03:17:32;;;;;;;6.07;5.60;;;;;;;7.12;100.00;94881.47;7404945;19;20403;-88
2023/12/14 03:20:03;;;;;;;7.17;5.90;;;;;;;7.18;100.00;94890.69;7422494;19;20369;-87
2023/12/14 03:22:33;;;;;;;5.30;4.83;;;;;;;6.96;100.00;94865.56;7409885;19;20733;-88
2023/12/14 03:25:03;;;;;;;5.57;4.80;;;;;;;7.41;100.00;94936.34;7401862;19;20378;-88
2023/12/14 03:27:32;;;;;;;6.30;5.70;;;;;;;7.21;100.00;94903.09;7401799;19;20397;-88
2023/12/14 03:30:00;;;;;;;6.67;5.27;;;;;;;7.31;100.00;94920.28;7401503;19;20365;-88
2023/12/14 03:32:29;;;;;;;7.23;5.33;;;;;;;7.12;100.00;94900.50;7399114;19;20451;-88
2023/12/14 03:34:59;;;;;;;5.30;4.27;;;;;;;7.50;100.00;94959.81;7400277;19;20422;-88
2023/12/14 03:37:29;;;;;;;6.93;5.97;;;;;;;7.06;100.00;94901.75;7403366;19;20364;-89
2023/12/14 03:39:58;;;;;;;8.23;6.00;;;;;;;7.18;100.00;94918.63;7401004;19;20861;-88
2023/12/14 03:42:27;;;;;;;7.30;5.30;;;;;;;7.05;100.00;94909.91;7398973;19;20409;-88
2023/12/14 03:44:56;;;;;;;6.93;6.10;;;;;;;7.02;100.00;94924.28;7401015;19;20876;-88
2023/12/14 03:47:28;;;;;;;9.13;6.23;;;;;;;7.33;100.00;94950.19;7400489;19;20464;-88
2023/12/14 03:49:57;;;;;;;6.93;6.30;;;;;;;7.00;100.00;94920.47;7401180;19;20510;-88
2023/12/14 03:52:27;;;;;;;6.83;5.30;;;;;;;7.02;100.00;94936.56;7398833;19;20389;-88
2023/12/14 03:54:56;;;;;;;9.13;5.93;;;;;;;6.46;100.00;94847.81;7398223;19;20381;-88
2023/12/14 03:57:25;;;;;;;7.30;5.93;;;;;;;6.98;100.00;94925.22;7400720;19;20412;-87
2023/12/14 03:59:54;;;;;;;7.17;6.10;;;;;;;6.63;100.00;94867.88;7398713;19;20779;-87
2023/12/14 04:02:23;;;;;;;7.17;6.30;;;;;;;6.70;100.00;94896.88;7398197;19;20436;-88
2023/12/14 04:04:52;;;;;;;7.23;6.50;;;;;;;6.80;100.00;94914.81;7399958;19;20397;-88
2023/12/14 04:07:21;;;;;;;6.57;5.90;;;;;;;6.38;100.00;94845.25;7400762;19;20416;-88
2023/12/14 04:09:55;;;;;;;7.00;6.13;;;;;;;7.23;100.00;94957.59;7400978;19;20380;-88
2023/12/14 04:12:47;;;;;;;10.73;6.80;;;;;;;7.09;100.00;94940.25;7399059;19;20400;-88
2023/12/14 04:15:36;;;;;;;9.13;7.10;;;;;;;7.59;100.00;95017.25;7400685;19;20384;-88
2023/12/14 04:18:08;;;;;;;9.10;6.67;;;;;;;7.08;100.00;94961.44;7400516;19;20380;-88
2023/12/14 04:20:40;;;;;;;8.70;7.13;;;;;;;7.39;100.00;95024.63;7399712;19;20373;-87
2023/12/14 04:23:10;;;;;;;7.60;6.73;;;;;;;6.71;100.00;94953.16;7399963;19;20381;-88
2023/12/14 04:25:40;;;;;;;15.87;7.50;;;;;;;6.98;100.00;94982.59;7400093;19;20361;-87
2023/12/14 04:28:09;;;;;;;11.87;7.17;;;;;;;6.72;100.00;94956.53;7399369;19;20384;-87
2023/12/14 04:30:39;;;;;;;11.00;7.60;;;;;;;6.81;100.00;94962.53;7399435;19;20410;-87
2023/12/14 04:33:08;;;;;;;11.77;8.80;;;;;;;6.79;100.00;94960.22;7398737;19;20372;-88
2023/12/14 04:35:41;;;;;;;9.80;8.83;;;;;;;6.78;100.00;94948.25;7397432;19;20396;-88
2023/12/14 04:38:10;;;;;;;8.13;7.20;;;;;;;6.93;100.00;95003.63;7398925;19;20944;-88
2023/12/14 04:40:39;;;;;;;9.10;8.30;;;;;;;6.93;100.00;94978.31;7398775;19;20372;-88
2023/12/14 04:43:11;;;;;;;10.60;6.90;;;;;;;6.86;100.00;94993.66;7400939;19;20364;-88
2023/12/14 04:45:41;;;;;;;7.13;6.13;;;;;;;6.75;100.00;94976.78;7398860;19;20424;-87
2023/12/14 04:48:13;;;;;;;7.33;6.63;;;;;;;6.67;100.00;94998.41;7398461;19;20380;-88
2023/12/14 04:50:47;;;;;;;10.33;8.87;;;;;;;6.53;100.00;94970.63;7398388;19;20384;-88
2023/12/14 04:53:16;;;;;;;11.13;8.33;;;;;;;6.43;100.00;94967.53;7398132;19;20377;-88
2023/12/14 04:55:45;;;;;;;8.80;7.90;;;;;;;6.70;100.00;95021.25;7398368;19;20949;-87
2023/12/14 04:58:21;;;;;;;8.70;7.20;;;;;;;6.79;100.00;95048.88;7398473;19;20372;-88
2023/12/14 05:00:54;;;;;;;14.57;7.70;;;;;;;6.50;100.00;95007.72;7397960;19;20403;-88
2023/12/14 05:03:24;;;;;;;11.00;8.40;;;;;;;7.01;100.00;95047.97;7400363;19;20371;-88
2023/12/14 05:05:53;;;;;;;8.90;7.97;;;;;;;6.75;100.00;94995.78;7398760;19;20387;-88
2023/12/14 05:08:22;;;;;;;10.23;7.73;;;;;;;6.84;100.00;95004.41;7398581;19;20744;-88
2023/12/14 05:11:41;;;;;;;7.40;6.60;;;;;;;7.47;100.00;95101.41;7396071;19;20448;-87
2023/12/14 05:15:13;;;;;;;8.50;7.43;;;;;;;7.52;100.00;95111.69;7396637;19;20403;-88
2023/12/14 05:18:13;;;;;;;11.67;8.83;;;;;;;7.50;100.00;95118.28;7398051;19;20378;-88
2023/12/14 05:20:48;;;;;;;9.77;7.40;;;;;;;6.79;100.00;95014.22;7398045;19;20456;-88
2023/12/14 05:23:55;;;;;;;11.63;7.77;;;;;;;7.34;100.00;95126.59;7398747;19;20400;-88
2023/12/14 05:26:45;;;;;;;10.63;8.60;;;;;;;7.53;100.00;95128.88;7397491;19;20402;-85
2023/12/14 05:29:15;;;;;;;8.77;7.87;;;;;;;7.23;100.00;95082.81;7398053;19;20384;-88
2023/12/14 05:32:06;;;;;;;9.50;8.07;;;;;;;7.17;100.00;95076.97;7396989;19;20409;-88
2023/12/14 05:35:06;;;;;;;8.80;7.90;;;;;;;7.56;100.00;95145.78;7396612;19;20396;-88
2023/12/14 05:38:21;;;;;;;9.10;8.13;;;;;;;7.56;100.00;95156.97;7399281;19;20376;-88
2023/12/14 05:41:36;;;;;;;9.83;8.53;;;;;;;7.06;100.00;95099.25;7395887;19;20386;-87
2023/12/14 05:44:44;;;;;;;9.43;8.53;;;;;;;7.17;100.00;95105.66;7397748;19;20449;-88
2023/12/14 05:47:51;;;;;;;9.63;7.97;;;;;;;6.85;100.00;95065.91;7397829;19;20373;-88
2023/12/14 05:51:10;;;;;;;9.53;8.53;;;;;;;7.47;100.00;95162.22;7396713;19;20436;-87
2023/12/14 05:54:10;;;;;;;20.27;16.17;;;;;;;7.40;100.00;95169.72;7397198;19;20747;-87
2023/12/14 05:57:12;;;;;;;46.30;29.30;;;;;;;7.44;100.00;95170.66;7396970;19;20369;-88
2023/12/14 06:00:14;;;;;;;25.50;17.73;;;;;;;6.87;100.00;95082.00;7397021;19;20373;-88
2023/12/14 06:03:20;;;;;;;17.00;14.03;;;;;;;7.52;100.00;95189.22;7396010;19;20365;-90
2023/12/14 06:06:22;;;;;;;13.00;10.80;;;;;;;6.62;100.00;95048.06;7397308;19;20380;-91
2023/12/14 06:09:19;;;;;;;11.23;10.13;;;;;;;6.90;100.00;95111.16;7397672;19;20403;-90
2023/12/14 06:12:49;;;;;;;15.10;11.07;;;;;;;7.55;100.00;95212.13;7396581;19;20484;-90
2023/12/14 06:16:16;;;;;;;;;;;;;;;;;;;;;
2023/12/14 06:19:48;;;;;;;11.67;9.83;;;;;;;6.68;100.00;95089.34;7397840;19;20912;-90
2023/12/14 06:22:41;;;;;;;9.93;7.90;;;;;;;6.70;100.00;95097.63;7396699;19;20936;-90
2023/12/14 06:30:09;;;;;;;11.50;8.47;;;;;;;7.43;100.00;95231.75;7404216;19;20865;-91
2023/12/14 06:33:08;;;;;;;9.03;7.70;;;;;;;6.24;100.00;95051.19;7401467;19;20487;-90
2023/12/14 06:36:59;;;;;;;15.30;11.77;;;;;;;7.42;100.00;95234.66;7403219;19;20424;-88
2023/12/14 06:40:28;;;;;;;16.07;12.83;;;;;;;7.45;100.00;95232.25;7405084;19;20374;-88
2023/12/14 06:43:27;;;;;;;13.40;8.87;;;;;;;6.82;100.00;95157.78;7403888;19;20384;-87
2023/12/14 06:46:29;;;;;;;12.73;11.40;;;;;;;6.78;100.00;95156.84;7402593;19;20903;-88
2023/12/14 06:49:54;;;;;;;;;;;;;;;;;;;;;
2023/12/14 06:53:06;;;;;;;11.17;9.17;;;;;;;6.69;100.00;95158.66;7400195;19;20393;-88
2023/12/14 06:56:38;;;;;;;7.47;6.37;;;;;;;7.38;100.00;95268.44;7399571;19;20393;-88
2023/12/14 06:59:43;;;;;;;7.63;6.43;;;;;;;6.63;100.00;95165.06;7404871;19;20404;-91
2023/12/14 07:03:04;;;;;;;8.83;6.57;;;;;;;6.87;100.00;95225.44;7404787;19;20709;-87
2023/12/14 07:06:10;;;;;;;7.00;5.83;;;;;;;6.83;100.00;95223.75;7402325;19;20734;-86
2023/12/14 07:09:17;;;;;;;7.30;6.37;;;;;;;6.77;100.00;95204.88;7402129;19;20872;-87
2023/12/14 07:12:46;;;;;;;8.83;6.43;;;;;;;7.30;100.00;95292.66;7399977;19;20404;-87
2023/12/14 07:16:41;;;;;;;9.83;6.97;;;;;;;7.25;100.00;95292.81;7399096;19;20876;-87
2023/12/14 07:20:09;;;;;;;8.43;6.70;;;;;;;6.47;100.00;95190.75;7403451;19;20365;-87
2023/12/14 07:24:00;;;;;;;6.67;5.63;;;;;;;7.18;100.00;95309.97;7401650;19;20395;-87
2023/12/14 07:27:17;;;;;;;7.90;6.93;;;;;;;7.01;100.00;95314.03;7401548;19;20384;-86
2023/12/14 07:30:43;;;;;;;10.27;6.87;;;;;;;6.10;100.00;95184.09;7401672;19;20385;-87
2023/12/14 07:34:29;;;;;;;;;;;;;;;;;;;;;
2023/12/14 07:41:23;;;;;;;10.40;8.00;;;;;;;6.21;100.00;95224.47;7402346;19;20376;-87
2023/12/14 07:44:59;;;;;;;11.80;10.17;;;;;;;7.30;100.00;95341.47;7414019;19;20372;-86
2023/12/14 07:48:28;;;;;;;9.87;7.90;;;;;;;7.35;100.00;95355.19;7407448;19;20388;-87
2023/12/14 07:51:39;;;;;;;7.83;6.97;;;;;;;6.66;100.00;95252.34;7398955;19;20396;-87
2023/12/14 07:54:45;;;;;;;10.20;8.70;;;;;;;6.91;100.00;95283.00;7399607;19;20392;-87
2023/12/14 07:58:25;;;;;;;9.47;7.23;;;;;;;7.53;100.00;95369.06;7396184;19;20383;-88
2023/12/14 08:01:58;;;;;;;7.17;6.13;;;;;;;7.50;100.00;95374.13;7399892;19;20417;-88
2023/12/14 08:05:27;;;;;;;7.43;6.73;;;;;;;7.15;100.00;95327.75;7400009;19;20399;-87
2023/12/14 08:08:49;;;;;;;7.47;5.60;;;;;;;7.04;100.00;95307.47;7400015;19;20392;-87
2023/12/14 08:12:02;;;;;;;6.73;5.60;;;;;;;7.62;100.00;95393.38;7398490;19;20392;-87
2023/12/14 08:15:14;;;;;;;;;;;;;;;;;;;;;
2023/12/14 08:18:54;;;;;;;6.20;5.60;;;;;;;7.63;100.00;95399.38;7400747;19;20675;-87
2023/12/14 08:22:20;;;;;;;7.80;4.53;;;;;;;7.79;100.00;95408.34;7399007;19;20393;-87
2023/12/14 08:25:59;;;;;;;8.50;7.50;;;;;;;7.83;100.00;95422.31;7399333;19;20425;-87
2023/12/14 08:29:41;;;;;;;12.77;8.90;;;;;;;7.87;100.00;95425.13;7399949;19;20385;-87
2023/12/14 08:33:23;;;;;;;12.60;9.17;;;;;;;7.53;100.00;95361.25;7399546;19;20387;-88
2023/12/14 08:36:58;;;;;;;8.87;6.20;;;;;;;7.97;100.00;95430.84;7394713;19;20500;-87
2023/12/14 08:43:59;;;;;;;5.77;4.43;;;;;;;7.87;100.00;95451.25;7403768;19;20366;-87
2023/12/14 08:50:59;;;;;;;3.73;3.30;;;;;;;7.36;100.00;95397.72;7400621;19;20357;-87
2023/12/14 08:54:11;;;;;;;2.90;2.60;;;;;;;6.36;100.00;95270.22;7400573;19;20368;-87
2023/12/14 08:57:27;;;;;;;3.30;3.00;;;;;;;7.05;100.00;95372.38;7398822;19;20384;-87
2023/12/14 09:01:00;;;;;;;3.10;2.80;;;;;;;7.73;100.00;95478.22;7398323;19;20384;-87
2023/12/14 09:04:21;;;;;;;4.93;2.97;;;;;;;7.40;100.00;95443.78;7400251;19;20718;-87
2023/12/14 09:07:52;;;;;;;3.40;3.10;;;;;;;7.59;100.00;95485.38;7397807;19;20448;-87
2023/12/14 09:11:40;;;;;;;3.50;3.20;;;;;;;6.90;100.00;95395.44;7398274;19;20365;-87
2023/12/14 09:14:47;;;;;;;4.50;4.10;;;;;;;7.19;100.00;95426.34;7397776;19;20840;-87
2023/12/14 09:18:11;;;;;;;3.97;3.07;;;;;;;7.27;100.00;95452.47;7397600;19;20408;-87
2023/12/14 09:21:35;;;;;;;4.60;4.10;;;;;;;7.80;100.00;95503.91;7398072;19;20443;-87
2023/12/14 09:24:59;;;;;;;;;;;;;;;;;;;;;
2023/12/14 09:28:35;;;;;;;2.67;2.47;;;;;;;7.19;100.00;95406.22;7398011;19;20873;-87
2023/12/14 09:32:10;;;;;;;;;;;;;;;;;;;;;
2023/12/14 09:35:19;;;;;;;3.33;3.03;;;;;;;7.23;100.00;95409.78;7396553;19;20409;-87
2023/12/14 09:45:59;;;;;;;3.40;3.10;;;;;;;7.29;100.00;95454.78;7402562;19;20386;-87
2023/12/14 09:49:30;;;;;;;3.47;2.97;;;;;;;7.54;100.00;95458.59;7397143;19;20412;-87
2023/12/14 09:53:20;;;;;;;4.80;3.93;;;;;;;8.02;100.00;95550.13;7394967;19;20397;-87
2023/12/14 09:56:38;;;;;;;4.10;3.40;;;;;;;6.55;100.00;95356.09;7398165;19;20880;-87
2023/12/14 09:59:43;;;;;;;3.77;3.30;;;;;;;6.55;100.00;95335.22;7396109;19;20890;-87
2023/12/14 10:07:05;;;;;;;4.20;3.80;;;;;;;7.50;100.00;95471.50;7398304;19;20894;-87
2023/12/14 10:10:48;;;;;;;6.90;3.90;;;;;;;7.83;100.00;95521.59;7396279;19;20384;-87
2023/12/14 10:14:13;;;;;;;5.90;4.50;;;;;;;7.62;100.00;95515.34;7399154;19;20440;-87
2023/12/14 10:18:01;;;;;;;5.20;4.70;;;;;;;8.02;100.00;95568.44;7396436;19;20865;-88
2023/12/14 10:21:32;;;;;;;6.10;4.80;;;;;;;8.17;100.00;95575.13;7397827;19;20695;-87
2023/12/14 10:32:13;;;;;;;5.17;3.93;;;;;;;8.07;100.00;95581.34;7400089;19;20388;-87
2023/12/14 10:35:47;;;;;;;4.77;4.27;;;;;;;8.20;100.00;95593.56;7397097;19;20421;-87
2023/12/14 10:39:18;;;;;;;6.03;4.97;;;;;;;8.14;100.00;95588.78;7395510;19;20464;-87
2023/12/14 10:50:27;;;;;;;6.10;4.90;;;;;;;8.39;100.00;95603.06;7401856;19;20380;-88
2023/12/14 10:53:51;;;;;;;;;;;;;;;;;;;;;
2023/12/14 10:57:49;;;;;;;5.40;4.30;;;;;;;8.44;100.00;95611.53;7392258;19;20384;-87
2023/12/14 11:01:17;;;;;;;;;;;;;;;;;;;;;
2023/12/14 11:08:19;;;;;;;8.50;5.30;;;;;;;8.44;100.00;95619.38;7401746;19;20866;-87
2023/12/14 11:11:48;;;;;;;6.43;5.40;;;;;;;7.54;100.00;95503.00;7401093;19;20702;-87
2023/12/14 11:18:54;;;;;;;10.43;6.93;;;;;;;7.70;100.00;95525.81;7407348;19;20363;-87
2023/12/14 11:22:26;;;;;;;12.33;10.73;;;;;;;7.81;100.00;95538.63;7401405;19;20389;-86
2023/12/14 11:25:38;;;;;;;9.77;8.40;;;;;;;7.72;100.00;95534.16;7401106;19;20388;-87
2023/12/14 11:29:25;;;;;;;6.63;5.50;;;;;;;8.39;100.00;95645.66;7403521;19;20357;-87
2023/12/14 11:37:07;;;;;;;6.30;5.70;;;;;;;8.43;100.00;95645.81;7401780;19;20469;-86
2023/12/14 11:44:20;;;;;;;7.20;5.97;;;;;;;8.47;100.00;95647.53;7401877;19;20380;-88
2023/12/14 11:47:41;;;;;;;6.00;4.00;;;;;;;7.54;100.00;95536.94;7402170;19;20381;-87
2023/12/14 11:51:29;;;;;;;4.87;4.47;;;;;;;8.33;100.00;95668.53;7400843;19;20373;-87
2023/12/14 12:02:18;;;;;;;5.80;4.70;;;;;;;8.40;100.00;95662.13;7403590;19;20926;-88
2023/12/14 12:05:54;;;;;;;;;;;;;;;;;;;;;
2023/12/14 12:27:12;;;;;;;;;;;;;;;;;;;;;
2023/12/14 12:41:30;;;;;;;5.83;4.60;;;;;;;7.95;100.00;95670.72;7403834;19;20360;-87
2023/12/14 12:45:00;;;;;;;5.63;5.13;;;;;;;7.25;100.00;95581.72;7398589;19;20393;-87
2023/12/14 12:48:07;;;;;;;6.13;4.70;;;;;;;7.11;100.00;95569.47;7400204;19;20360;-87
2023/12/14 12:51:27;;;;;;;6.33;5.00;;;;;;;6.90;100.00;95524.00;7398388;19;20404;-87
2023/12/14 12:54:44;;;;;;;4.80;4.30;;;;;;;6.95;100.00;95580.53;7398229;19;20384;-87
2023/12/14 12:58:32;;;;;;;9.50;6.80;;;;;;;7.88;100.00;95675.63;7398248;19;20406;-88
2023/12/14 13:02:02;;;;;;;10.57;9.33;;;;;;;6.96;100.00;95558.59;7396472;19;20400;-87
2023/12/14 13:05:49;;;;;;;7.90;6.17;;;;;;;7.54;100.00;95680.53;7397711;19;20392;-88
2023/12/14 13:09:22;;;;;;;7.40;6.57;;;;;;;7.72;100.00;95692.69;7397758;19;20415;-87
2023/12/14 13:12:48;;;;;;;;;;;;;;;;;;;;;
2023/12/14 13:16:14;;;;;;;8.17;7.23;;;;;;;7.65;100.00;95700.16;7397193;19;20381;-87
2023/12/14 13:19:25;;;;;;;8.70;7.10;;;;;;;7.17;100.00;95606.66;7399554;19;20440;-88
2023/12/14 13:22:25;;;;;;;9.03;7.13;;;;;;;7.39;100.00;95642.47;7399001;19;20898;-88
2023/12/14 13:30:16;;;;;;;;;;;;;;;;;;;;;
2023/12/14 13:33:50;;;;;;;10.20;8.40;;;;;;;7.64;100.00;95722.88;7400416;19;20423;-92
2023/12/14 13:38:04;;;;;;;;;;;;;;;;;;;;;
2023/12/14 14:09:45;;;;;;;10.30;9.00;;;;;;;6.71;100.00;95643.31;7391588;19;20901;-89
2023/12/14 14:13:24;;;;;;;14.60;12.40;;;;;;;7.78;100.00;95788.16;7391766;19;20421;-88
2023/12/14 14:16:31;;;;;;;13.53;10.97;;;;;;;7.76;100.00;95796.28;7394933;19;20377;-89
2023/12/14 14:20:08;;;;;;;12.13;9.90;;;;;;;7.83;100.00;95805.56;7396392;19;20383;-89
2023/12/14 14:23:34;;;;;;;11.03;9.87;;;;;;;7.18;100.00;95730.09;7396210;19;20375;-89
2023/12/14 14:30:54;;;;;;;7.67;6.63;;;;;;;7.76;100.00;95832.09;7394392;19;20377;-89
2023/12/14 14:34:00;;;;;;;9.13;7.33;;;;;;;7.67;100.00;95836.44;7394493;19;20380;-89
2023/12/14 14:47:38;;;;;;;10.97;8.00;;;;;;;6.47;100.00;95670.31;7438851;19;20857;-88
2023/12/14 14:50:52;;;;;;;10.70;9.13;;;;;;;7.72;100.00;95865.84;7431471;19;20376;-88
2023/12/14 14:53:49;;;;;;;9.77;7.70;;;;;;;6.63;100.00;95722.19;7438121;19;20387;-88
2023/12/14 14:56:56;;;;;;;;;;;;;;;;;;;;;
2023/12/14 15:07:59;;;;;;;;;;;;;;;;;;;;;
2023/12/14 15:18:25;;;;;;;5.27;4.77;;;;;;;7.69;100.00;95917.88;7447676;19;20412;-94
2023/12/14 15:32:37;;;;;;;8.33;6.97;;;;;;;6.68;100.00;95821.19;7450728;19;20400;-96
2023/12/14 15:36:18;;;;;;;13.97;12.47;;;;;;;7.49;100.00;95941.75;7449937;19;20414;-96
2023/12/14 15:39:43;;;;;;;;;;;;;;;;;;;;;
2023/12/14 16:12:59;;;;;;;4.90;4.40;;;;;;;6.71;100.00;95938.75;7399516;19;20421;-87
2023/12/14 16:15:33;;;;;;;3.80;3.50;;;;;;;6.48;100.00;95923.94;7401960;19;20375;-87
2023/12/14 16:18:01;;;;;;;5.70;5.20;;;;;;;6.54;100.00;95931.41;7401019;19;20409;-86
2023/12/14 16:20:28;;;;;;;4.73;4.33;;;;;;;6.46;100.00;95924.22;7401513;19;20673;-87
2023/12/14 16:22:56;;;;;;;4.40;4.10;;;;;;;6.45;100.00;95912.25;7399129;19;20417;-87
2023/12/14 16:25:23;;;;;;;6.10;4.90;;;;;;;6.34;100.00;95920.47;7400109;19;20900;-87
2023/12/14 16:27:50;;;;;;;6.37;5.77;;;;;;;6.45;100.00;95953.16;7400893;19;20385;-87
2023/12/14 16:30:18;;;;;;;5.83;5.33;;;;;;;6.47;100.00;95959.66;7400372;19;20373;-87
2023/12/14 16:32:45;;;;;;;4.13;3.83;;;;;;;6.27;100.00;95899.97;7397686;19;20412;-87
2023/12/14 16:35:14;;;;;;;5.50;3.53;;;;;;;6.16;100.00;95917.56;7399890;19;20353;-86
2023/12/14 16:37:46;;;;;;;6.93;5.57;;;;;;;6.36;100.00;95944.41;7400257;19;20389;-90
2023/12/14 16:40:17;;;;;;;5.77;5.27;;;;;;;6.07;100.00;95892.41;7404462;19;20468;-86
2023/12/14 16:42:45;;;;;;;5.53;5.03;;;;;;;5.81;100.00;95851.03;7398439;19;20409;-86
2023/12/14 16:45:12;;;;;;;4.90;4.50;;;;;;;5.82;100.00;95876.00;7399530;19;20372;-86
2023/12/14 16:47:41;;;;;;;3.87;3.57;;;;;;;6.16;100.00;95912.34;7400020;19;20401;-86
2023/12/14 16:50:09;;;;;;;4.17;3.87;;;;;;;6.30;100.00;95950.75;7399721;19;20361;-86
2023/12/14 16:52:36;;;;;;;7.20;4.10;;;;;;;6.23;100.00;95958.88;7398491;19;20414;-86
2023/12/14 16:55:04;;;;;;;4.60;4.00;;;;;;;6.54;100.00;96011.47;7398971;19;20397;-86
2023/12/14 16:57:31;;;;;;;3.70;3.30;;;;;;;6.37;100.00;95985.06;7399293;19;20385;-86
2023/12/14 16:59:59;;;;;;;3.53;3.20;;;;;;;6.60;100.00;96027.81;7397244;19;20405;-86
2023/12/14 17:02:26;;;;;;;3.90;3.60;;;;;;;5.65;100.00;95901.72;7394595;19;20719;-85
2023/12/14 17:04:53;;;;;;;3.90;3.50;;;;;;;5.56;100.00;95874.72;7398787;19;20377;-86
2023/12/14 17:07:21;;;;;;;4.40;3.27;;;;;;;5.87;100.00;95943.66;7398827;19;20384;-86
2023/12/14 17:09:48;;;;;;;4.00;3.03;;;;;;;5.44;100.00;95895.19;7399583;19;20905;-84
2023/12/14 17:12:15;;;;;;;3.43;3.07;;;;;;;5.78;100.00;95962.78;7400119;19;20764;-84
2023/12/14 17:14:43;;;;;;;4.50;3.63;;;;;;;5.59;100.00;95934.84;7399009;19;20861;-86
2023/12/14 17:17:10;;;;;;;3.43;3.07;;;;;;;6.32;100.00;96051.06;7399252;19;20396;-86
2023/12/14 17:19:38;;;;;;;4.13;3.23;;;;;;;5.67;100.00;95952.44;7397266;19;20712;-85
2023/12/14 17:22:25;;;;;;;2.60;2.40;;;;;;;6.32;100.00;96073.72;7397470;19;20400;-85